createdAt,value
2023-03-13T00:00:06.507Z,100.00
2023-03-13T00:02:51.681Z,100.00
2023-03-13T00:05:37.987Z,100.00
2023-03-13T00:08:23.695Z,100.00
2023-03-13T00:11:11.370Z,100.00
2023-03-13T00:13:58.351Z,100.00
2023-03-13T00:16:43.746Z,100.00
2023-03-13T00:19:28.949Z,100.00
2023-03-13T00:22:14.235Z,100.00
2023-03-13T00:24:59.608Z,100.00
2023-03-13T00:27:44.998Z,100.00
2023-03-13T00:30:30.310Z,100.00
2023-03-13T00:33:15.274Z,100.00
2023-03-13T00:36:01.909Z,100.00
2023-03-13T00:38:46.897Z,100.00
2023-03-13T00:41:33.366Z,100.00
2023-03-13T00:44:18.794Z,100.00
2023-03-13T00:47:05.373Z,100.00
2023-03-13T00:49:50.460Z,100.00
2023-03-13T00:52:35.598Z,100.00
2023-03-13T00:55:20.885Z,100.00
2023-03-13T00:58:06.128Z,100.00
2023-03-13T01:00:51.901Z,100.00
2023-03-13T01:03:38.343Z,100.00
2023-03-13T01:06:26.123Z,100.00
2023-03-13T01:09:14.605Z,100.00
2023-03-13T01:11:59.763Z,100.00
2023-03-13T01:14:44.678Z,100.00
2023-03-13T01:17:30.670Z,100.00
2023-03-13T01:20:16.365Z,100.00
2023-03-13T01:23:01.455Z,100.00
2023-03-13T01:25:46.486Z,100.00
2023-03-13T01:28:32.087Z,100.00
2023-03-13T01:31:20.252Z,100.00
2023-03-13T01:34:06.649Z,100.00
2023-03-13T01:36:52.402Z,100.00
2023-03-13T01:39:37.830Z,100.00
2023-03-13T01:42:22.974Z,100.00
2023-03-13T01:45:46.404Z,100.00
2023-03-13T01:48:40.491Z,100.00
2023-03-13T01:51:33.081Z,100.00
2023-03-13T01:54:21.234Z,100.00
2023-03-13T01:57:37.609Z,100.00
2023-03-13T02:00:26.940Z,100.00
2023-03-13T02:03:17.800Z,100.00
2023-03-13T02:06:05.416Z,100.00
2023-03-13T02:08:56.858Z,100.00
2023-03-13T02:12:02.927Z,100.00
2023-03-13T02:14:50.577Z,100.00
2023-03-13T02:17:36.876Z,100.00
2023-03-13T02:20:22.878Z,100.00
2023-03-13T02:23:27.685Z,100.00
2023-03-13T02:26:13.474Z,100.00
2023-03-13T02:28:58.897Z,100.00
2023-03-13T02:31:48.136Z,100.00
2023-03-13T02:34:35.601Z,100.00
2023-03-13T02:37:21.907Z,100.00
2023-03-13T02:40:10.952Z,100.00
2023-03-13T02:42:59.874Z,100.00
2023-03-13T02:46:08.030Z,100.00
2023-03-13T02:48:55.990Z,100.00
2023-03-13T02:51:45.932Z,100.00
2023-03-13T02:54:35.530Z,100.00
2023-03-13T02:57:20.922Z,100.00
2023-03-13T03:00:07.795Z,100.00
2023-03-13T03:02:56.352Z,100.00
2023-03-13T03:05:41.887Z,100.00
2023-03-13T03:08:26.999Z,100.00
2023-03-13T03:11:12.662Z,100.00
2023-03-13T03:13:57.709Z,100.00
2023-03-13T03:16:43.648Z,100.00
2023-03-13T03:19:28.855Z,100.00
2023-03-13T03:22:14.314Z,100.00
2023-03-13T03:24:59.323Z,100.00
2023-03-13T03:27:44.317Z,100.00
2023-03-13T03:30:29.465Z,100.00
2023-03-13T03:33:14.362Z,100.00
2023-03-13T03:36:01.396Z,100.00
2023-03-13T03:38:47.697Z,100.00
2023-03-13T03:41:32.641Z,100.00
2023-03-13T03:44:17.651Z,100.00
2023-03-13T03:47:02.938Z,100.00
2023-03-13T03:49:48.377Z,100.00
2023-03-13T03:52:33.551Z,100.00
2023-03-13T03:55:19.420Z,100.00
2023-03-13T03:58:04.507Z,100.00
2023-03-13T04:00:49.739Z,100.00
2023-03-13T04:03:35.142Z,100.00
2023-03-13T04:06:20.405Z,100.00
2023-03-13T04:09:05.549Z,100.00
2023-03-13T04:11:50.677Z,100.00
2023-03-13T04:14:35.949Z,100.00
2023-03-13T04:17:21.210Z,100.00
2023-03-13T04:20:07.728Z,100.00
2023-03-13T04:22:52.783Z,100.00
2023-03-13T04:25:38.345Z,100.00
2023-03-13T04:28:23.627Z,100.00
2023-03-13T04:31:09.052Z,100.00
2023-03-13T04:33:54.358Z,100.00
2023-03-13T04:36:39.986Z,100.00
2023-03-13T04:39:25.453Z,100.00
2023-03-13T04:42:11.829Z,100.00
2023-03-13T04:44:56.908Z,100.00
2023-03-13T04:47:41.977Z,100.00
2023-03-13T04:50:27.028Z,100.00
2023-03-13T04:53:12.197Z,100.00
2023-03-13T04:55:57.145Z,100.00
2023-03-13T04:58:42.266Z,100.00
2023-03-13T05:01:27.615Z,100.00
2023-03-13T05:04:13.032Z,100.00
2023-03-13T05:06:58.222Z,100.00
2023-03-13T05:09:43.203Z,100.00
2023-03-13T05:12:28.156Z,100.00
2023-03-13T05:15:13.131Z,100.00
2023-03-13T05:17:58.426Z,100.00
2023-03-13T05:20:43.706Z,100.00
2023-03-13T05:23:28.819Z,100.00
2023-03-13T05:26:14.019Z,100.00
2023-03-13T05:28:59.023Z,100.00
2023-03-13T05:31:44.231Z,100.00
2023-03-13T05:34:29.568Z,100.00
2023-03-13T05:37:14.851Z,100.00
2023-03-13T05:40:00.060Z,100.00
2023-03-13T05:42:45.723Z,100.00
2023-03-13T05:45:30.735Z,100.00
2023-03-13T05:48:15.969Z,100.00
2023-03-13T05:51:01.011Z,100.00
2023-03-13T05:53:46.174Z,100.00
2023-03-13T05:56:31.561Z,100.00
2023-03-13T05:59:16.739Z,100.00
2023-03-13T06:02:02.105Z,100.00
2023-03-13T06:04:47.921Z,100.00
2023-03-13T06:07:33.205Z,100.00
2023-03-13T06:10:18.561Z,100.00
2023-03-13T06:13:18.743Z,100.00
2023-03-13T06:16:05.276Z,100.00
2023-03-13T06:18:51.223Z,100.00
2023-03-13T06:21:36.208Z,100.00
2023-03-13T06:24:21.147Z,100.00
2023-03-13T06:27:07.575Z,100.00
2023-03-13T06:29:52.918Z,100.00
2023-03-13T06:32:38.275Z,100.00
2023-03-13T06:35:23.604Z,100.00
2023-03-13T06:38:09.828Z,100.00
2023-03-13T06:40:55.260Z,100.00
2023-03-13T06:43:40.865Z,100.00
2023-03-13T06:46:26.334Z,100.00
2023-03-13T06:49:11.496Z,100.00
2023-03-13T06:51:59.515Z,100.00
2023-03-13T06:54:44.689Z,100.00
2023-03-13T06:57:29.644Z,100.00
2023-03-13T07:00:14.753Z,100.00
2023-03-13T07:03:00.052Z,100.00
2023-03-13T07:05:45.223Z,100.00
2023-03-13T07:08:30.453Z,100.00
2023-03-13T07:11:15.795Z,100.00
2023-03-13T07:14:15.800Z,100.00
2023-03-13T07:17:02.136Z,100.00
2023-03-13T07:19:47.272Z,100.00
2023-03-13T07:22:32.716Z,100.00
2023-03-13T07:25:18.025Z,100.00
2023-03-13T07:28:03.050Z,100.00
2023-03-13T07:30:48.367Z,100.00
2023-03-13T07:33:34.087Z,100.00
2023-03-13T07:36:19.270Z,100.00
2023-03-13T07:39:04.777Z,100.00
2023-03-13T07:41:50.235Z,100.00
2023-03-13T07:44:35.495Z,100.00
2023-03-13T07:47:20.511Z,100.00
2023-03-13T07:50:06.780Z,100.00
2023-03-13T07:52:52.273Z,100.00
2023-03-13T07:55:37.838Z,100.00
2023-03-13T07:58:24.588Z,100.00
2023-03-13T08:01:12.477Z,100.00
2023-03-13T08:04:01.121Z,100.00
2023-03-13T08:06:46.397Z,100.00
2023-03-13T08:09:33.298Z,100.00
2023-03-13T08:12:18.517Z,100.00
2023-03-13T08:15:03.764Z,100.00
2023-03-13T08:17:49.510Z,100.00
2023-03-13T08:20:34.836Z,100.00
2023-03-13T08:23:20.068Z,100.00
2023-03-13T08:26:18.582Z,100.00
2023-03-13T08:29:09.606Z,100.00
2023-03-13T08:31:55.720Z,100.00
2023-03-13T08:34:40.978Z,100.00
2023-03-13T08:37:26.036Z,100.00
2023-03-13T08:40:11.949Z,100.00
2023-03-13T08:42:57.351Z,100.00
2023-03-13T08:45:42.526Z,100.00
2023-03-13T08:48:27.689Z,100.00
2023-03-13T08:51:15.269Z,100.00
2023-03-13T08:54:01.752Z,100.00
2023-03-13T08:56:46.826Z,100.00
2023-03-13T08:59:32.009Z,100.00
2023-03-13T09:02:20.112Z,100.00
2023-03-13T09:05:06.195Z,100.00
2023-03-13T09:07:51.412Z,100.00
2023-03-13T09:10:36.600Z,100.00
2023-03-13T09:13:21.666Z,100.00
2023-03-13T09:16:09.466Z,100.00
2023-03-13T09:18:56.286Z,100.00
2023-03-13T09:21:41.477Z,100.00
2023-03-13T09:24:27.105Z,100.00
2023-03-13T09:27:12.283Z,100.00
2023-03-13T09:29:57.227Z,100.00
2023-03-13T09:32:42.283Z,100.00
2023-03-13T09:35:27.650Z,100.00
2023-03-13T09:38:13.015Z,100.00
2023-03-13T09:41:14.877Z,100.00
2023-03-13T09:44:03.225Z,100.00
2023-03-13T09:47:06.045Z,100.00
2023-03-13T09:50:04.966Z,100.00
2023-03-13T09:52:59.394Z,100.00
2023-03-13T09:55:45.905Z,100.00
2023-03-13T09:58:33.280Z,100.00
2023-03-13T10:01:23.640Z,100.00
2023-03-13T10:04:25.182Z,100.00
2023-03-13T10:07:13.923Z,100.00
2023-03-13T10:10:01.466Z,100.00
2023-03-13T10:12:49.333Z,100.00
2023-03-13T10:15:44.961Z,100.00
2023-03-13T10:18:30.067Z,100.00
2023-03-13T10:21:21.493Z,100.00
2023-03-13T10:24:25.381Z,100.00
2023-03-13T10:27:11.708Z,100.00
2023-03-13T10:29:56.762Z,100.00
2023-03-13T10:32:42.141Z,100.00
2023-03-13T10:35:34.860Z,100.00
2023-03-13T10:38:23.432Z,100.00
2023-03-13T10:41:19.531Z,100.00
2023-03-13T10:44:08.310Z,100.00
2023-03-13T10:47:00.551Z,100.00
2023-03-13T10:49:55.292Z,99.89
2023-03-13T10:52:40.513Z,99.52
2023-03-13T10:55:26.437Z,100.00
2023-03-13T10:58:20.243Z,98.58
2023-03-13T11:01:40.466Z,99.31
2023-03-13T11:04:35.019Z,100.00
2023-03-13T11:07:22.423Z,100.00
2023-03-13T11:10:13.539Z,98.84
2023-03-13T11:12:59.273Z,96.17
2023-03-13T11:15:58.161Z,95.02
2023-03-13T11:19:02.282Z,94.65
2023-03-13T11:22:09.139Z,94.55
2023-03-13T11:25:29.733Z,95.10
2023-03-13T11:28:33.767Z,94.20
2023-03-13T11:31:24.907Z,93.79
2023-03-13T11:34:27.997Z,94.04
2023-03-13T11:37:15.399Z,94.73
2023-03-13T11:40:31.850Z,95.43
2023-03-13T11:43:25.834Z,94.54
2023-03-13T11:46:38.308Z,94.27
2023-03-13T11:49:50.933Z,94.11
2023-03-13T11:52:48.168Z,94.87
2023-03-13T11:56:06.119Z,95.00
2023-03-13T11:59:07.632Z,94.02
2023-03-13T12:02:23.957Z,94.94
2023-03-13T12:05:13.680Z,93.95
2023-03-13T12:08:07.431Z,94.50
2023-03-13T12:11:07.152Z,95.55
2023-03-13T12:13:57.649Z,95.25
2023-03-13T12:16:52.548Z,95.92
2023-03-13T12:19:43.617Z,95.24
2023-03-13T12:22:51.950Z,95.62
2023-03-13T12:25:54.366Z,96.00
2023-03-13T12:29:32.349Z,96.81
2023-03-13T12:32:34.486Z,95.07
2023-03-13T12:35:33.396Z,95.49
2023-03-13T12:38:41.281Z,94.86
2023-03-13T12:41:33.044Z,94.66
2023-03-13T12:44:20.533Z,94.56
2023-03-13T12:47:30.495Z,94.46
2023-03-13T12:50:57.561Z,91.73
2023-03-13T12:54:11.315Z,90.82
2023-03-13T12:57:47.232Z,90.50
2023-03-13T13:00:37.067Z,89.09
2023-03-13T13:03:43.652Z,88.65
2023-03-13T13:06:51.564Z,87.48
2023-03-13T13:09:42.002Z,85.48
2023-03-13T13:12:27.138Z,85.82
2023-03-13T13:15:29.828Z,85.17
2023-03-13T13:18:32.397Z,84.49
2023-03-13T13:21:26.586Z,83.08
2023-03-13T13:24:41.071Z,81.56
2023-03-13T13:27:32.296Z,81.02
2023-03-13T13:30:17.194Z,81.58
2023-03-13T13:33:21.467Z,80.90
2023-03-13T13:36:09.578Z,81.55
2023-03-13T13:38:56.487Z,79.95
2023-03-13T13:41:41.971Z,78.07
2023-03-13T13:44:29.623Z,79.63
2023-03-13T13:47:25.348Z,81.26
2023-03-13T13:50:25.724Z,83.33
2023-03-13T13:53:31.622Z,82.73
2023-03-13T13:56:28.999Z,84.56
2023-03-13T13:59:20.613Z,84.81
2023-03-13T14:02:10.440Z,85.71
2023-03-13T14:05:08.060Z,85.60
2023-03-13T14:07:55.686Z,85.64
2023-03-13T14:10:45.740Z,85.93
2023-03-13T14:13:31.230Z,86.15
2023-03-13T14:16:26.294Z,86.82
2023-03-13T14:19:43.035Z,87.32
2023-03-13T14:22:46.205Z,87.42
2023-03-13T14:26:11.988Z,87.72
2023-03-13T14:29:00.101Z,87.20
2023-03-13T14:31:52.046Z,86.90
2023-03-13T14:34:37.201Z,85.67
2023-03-13T14:37:52.489Z,87.02
2023-03-13T14:40:39.290Z,86.92
2023-03-13T14:43:41.934Z,87.22
2023-03-13T14:46:31.773Z,86.92
2023-03-13T14:49:17.385Z,85.91
2023-03-13T14:52:04.810Z,86.44
2023-03-13T14:55:02.164Z,86.13
2023-03-13T14:58:03.571Z,86.49
2023-03-13T15:00:49.220Z,86.18
2023-03-13T15:03:34.417Z,85.92
2023-03-13T15:06:22.809Z,84.40
2023-03-13T15:09:21.235Z,84.73
2023-03-13T15:12:06.396Z,84.81
2023-03-13T15:14:53.046Z,84.09
2023-03-13T15:17:38.342Z,83.58
2023-03-13T15:20:23.649Z,83.60
2023-03-13T15:23:14.520Z,83.14
2023-03-13T15:25:59.627Z,81.51
2023-03-13T15:28:44.660Z,82.81
2023-03-13T15:31:30.327Z,81.49
2023-03-13T15:34:16.284Z,82.06
2023-03-13T15:37:01.548Z,81.38
2023-03-13T15:39:46.805Z,81.96
2023-03-13T15:42:32.105Z,81.79
2023-03-13T15:45:17.532Z,80.40
2023-03-13T15:48:11.791Z,80.89
2023-03-13T15:50:59.925Z,80.97
2023-03-13T15:53:46.223Z,82.10
2023-03-13T15:56:36.502Z,81.66
2023-03-13T15:59:21.529Z,82.01
2023-03-13T16:02:15.098Z,82.15
2023-03-13T16:05:00.406Z,82.78
2023-03-13T16:07:45.868Z,82.90
2023-03-13T16:10:32.198Z,83.94
2023-03-13T16:13:18.270Z,83.06
2023-03-13T16:16:17.099Z,84.21
2023-03-13T16:19:04.280Z,83.95
2023-03-13T16:21:50.577Z,84.16
2023-03-13T16:24:36.028Z,85.13
2023-03-13T16:27:21.445Z,85.67
2023-03-13T16:30:15.798Z,86.07
2023-03-13T16:33:01.294Z,86.35
2023-03-13T16:35:46.256Z,86.04
2023-03-13T16:38:31.569Z,85.82
2023-03-13T16:41:19.023Z,85.96
2023-03-13T16:44:04.165Z,85.84
2023-03-13T16:47:04.448Z,86.11
2023-03-13T16:49:50.846Z,86.52
2023-03-13T16:52:36.118Z,86.48
2023-03-13T16:55:24.727Z,86.67
2023-03-13T16:58:12.641Z,86.81
2023-03-13T17:01:06.409Z,87.52
2023-03-13T17:03:52.184Z,88.20
2023-03-13T17:06:39.966Z,88.38
2023-03-13T17:09:25.330Z,88.76
2023-03-13T17:12:10.374Z,88.59
2023-03-13T17:14:55.683Z,89.26
2023-03-13T17:17:41.362Z,89.01
2023-03-13T17:20:28.858Z,89.50
2023-03-13T17:23:14.220Z,89.85
2023-03-13T17:25:59.435Z,89.85
2023-03-13T17:28:45.774Z,90.23
2023-03-13T17:31:37.123Z,90.71
2023-03-13T17:34:23.613Z,90.38
2023-03-13T17:37:17.690Z,90.85
2023-03-13T17:40:04.193Z,90.58
2023-03-13T17:42:49.866Z,90.71
2023-03-13T17:45:36.832Z,90.88
2023-03-13T17:48:21.895Z,90.98
2023-03-13T17:51:14.352Z,91.70
2023-03-13T17:54:00.482Z,92.31
2023-03-13T17:56:46.119Z,93.32
2023-03-13T17:59:31.243Z,93.27
2023-03-13T18:02:17.442Z,94.86
2023-03-13T18:05:02.837Z,97.64
2023-03-13T18:07:48.973Z,100.00
2023-03-13T18:10:34.227Z,100.00
2023-03-13T18:13:19.547Z,100.00
2023-03-13T18:16:16.372Z,100.00
2023-03-13T18:19:01.894Z,100.00
2023-03-13T18:21:49.071Z,100.00
2023-03-13T18:24:34.037Z,100.00
2023-03-13T18:27:21.813Z,100.00
2023-03-13T18:30:15.602Z,100.00
2023-03-13T18:33:01.242Z,100.00
2023-03-13T18:35:46.557Z,100.00
2023-03-13T18:38:32.320Z,100.00
2023-03-13T18:41:19.690Z,100.00
2023-03-13T18:44:05.053Z,100.00
2023-03-13T18:46:52.067Z,100.00
2023-03-13T18:49:38.406Z,100.00
2023-03-13T18:52:23.654Z,100.00
2023-03-13T18:55:09.009Z,100.00
2023-03-13T18:57:55.301Z,100.00
2023-03-13T19:00:40.758Z,100.00
2023-03-13T19:03:25.931Z,100.00
2023-03-13T19:06:19.088Z,100.00
2023-03-13T19:09:41.081Z,100.00
2023-03-13T19:12:20.704Z,100.00
2023-03-13T19:15:07.092Z,100.00
2023-03-13T19:17:52.958Z,100.00
2023-03-13T19:20:38.140Z,100.00
2023-03-13T19:23:23.189Z,100.00
2023-03-13T19:26:32.121Z,100.00
2023-03-13T19:29:22.525Z,100.00
2023-03-13T19:32:12.458Z,100.00
2023-03-13T19:34:57.928Z,100.00
2023-03-13T19:37:43.160Z,100.00
2023-03-13T19:40:28.850Z,100.00
2023-03-13T19:43:13.966Z,100.00
2023-03-13T19:45:59.330Z,100.00
2023-03-13T19:48:44.853Z,100.00
2023-03-13T19:51:30.913Z,100.00
2023-03-13T19:54:16.299Z,100.00
2023-03-13T19:57:01.220Z,100.00
2023-03-13T19:59:46.183Z,100.00
2023-03-13T20:02:31.238Z,100.00
2023-03-13T20:05:16.923Z,100.00
2023-03-13T20:08:02.238Z,100.00
2023-03-13T20:10:47.586Z,100.00
2023-03-13T20:13:32.861Z,100.00
2023-03-13T20:16:18.822Z,100.00
2023-03-13T20:19:04.918Z,100.00
2023-03-13T20:21:50.168Z,100.00
2023-03-13T20:24:35.746Z,100.00
2023-03-13T20:27:20.976Z,100.00
2023-03-13T20:30:07.125Z,100.00
2023-03-13T20:32:59.149Z,100.00
2023-03-13T20:35:44.512Z,100.00
2023-03-13T20:38:29.995Z,100.00
2023-03-13T20:41:21.120Z,100.00
2023-03-13T20:44:06.500Z,100.00
2023-03-13T20:46:51.832Z,100.00
2023-03-13T20:49:37.028Z,100.00
2023-03-13T20:52:22.220Z,100.00
2023-03-13T20:55:07.803Z,100.00
2023-03-13T20:57:52.873Z,100.00
2023-03-13T21:00:38.383Z,100.00
2023-03-13T21:03:23.776Z,100.00
2023-03-13T21:06:17.782Z,100.00
2023-03-13T21:09:03.235Z,100.00
2023-03-13T21:11:48.482Z,100.00
2023-03-13T21:14:35.049Z,100.00
2023-03-13T21:17:20.844Z,100.00
2023-03-13T21:20:13.862Z,100.00
2023-03-13T21:22:58.688Z,100.00
2023-03-13T21:25:43.925Z,100.00
2023-03-13T21:28:29.812Z,100.00
2023-03-13T21:31:17.897Z,100.00
2023-03-13T21:34:03.205Z,100.00
2023-03-13T21:36:48.239Z,100.00
2023-03-13T21:39:33.528Z,100.00
2023-03-13T21:42:19.205Z,100.00
2023-03-13T21:45:06.547Z,100.00
2023-03-13T21:47:51.737Z,100.00
2023-03-13T21:50:36.686Z,100.00
2023-03-13T21:53:21.797Z,100.00
2023-03-13T21:56:07.957Z,100.00
2023-03-13T21:58:52.931Z,100.00
2023-03-13T22:01:38.970Z,100.00
2023-03-13T22:04:24.352Z,100.00
2023-03-13T22:07:10.144Z,100.00
2023-03-13T22:09:55.424Z,100.00
2023-03-13T22:12:40.616Z,100.00
2023-03-13T22:15:25.874Z,100.00
2023-03-13T22:18:10.859Z,100.00
2023-03-13T22:21:00.161Z,100.00
2023-03-13T22:23:45.963Z,100.00
2023-03-13T22:26:31.185Z,100.00
2023-03-13T22:29:16.686Z,100.00
2023-03-13T22:32:02.391Z,100.00
2023-03-13T22:34:48.113Z,100.00
2023-03-13T22:37:33.353Z,100.00
2023-03-13T22:40:20.203Z,100.00
2023-03-13T22:43:05.156Z,100.00
2023-03-13T22:45:50.607Z,100.00
2023-03-13T22:48:36.257Z,100.00
2023-03-13T22:51:21.644Z,100.00
2023-03-13T22:54:06.733Z,100.00
2023-03-13T22:56:51.993Z,100.00
2023-03-13T22:59:37.159Z,100.00
2023-03-13T23:02:22.366Z,100.00
2023-03-13T23:05:07.763Z,100.00
2023-03-13T23:07:53.198Z,100.00
2023-03-13T23:10:38.458Z,100.00
2023-03-13T23:13:23.701Z,100.00
2023-03-13T23:16:11.681Z,100.00
2023-03-13T23:18:56.959Z,100.00
2023-03-13T23:21:42.198Z,100.00
2023-03-13T23:24:27.280Z,100.00
2023-03-13T23:27:12.548Z,100.00
2023-03-13T23:29:57.634Z,100.00
2023-03-13T23:32:45.104Z,100.00
2023-03-13T23:35:30.401Z,100.00
2023-03-13T23:38:18.448Z,100.00
2023-03-13T23:41:12.724Z,100.00
2023-03-13T23:43:58.443Z,100.00
2023-03-13T23:46:43.536Z,100.00
2023-03-13T23:49:28.708Z,100.00
2023-03-13T23:52:14.544Z,100.00
2023-03-13T23:55:00.598Z,100.00
2023-03-13T23:57:50.065Z,100.00
